Alix, Arkansas
Current Conditions -  °F | °C
As of 2:53 PM on Sunday 21 Dec 2014 (Local Time) from KFSM Reporting Station
Overcast Overcast  
Wind Chill: 51°   Ceiling: 3900
Heat Index: 51°   Visibility: 10mi
Dew Point: 38°   Wind: 7mph
Humidity: 61%   Direction: 140°SE
Pressure: 29.93"   Gusts: NA
Location:  35.43°N, 93.73°W
Report Text: KFSM 212053Z 14006KT 10SM OVC039 11/03 A2993 RMK AO2 SLP136 T01060033 56042
Loading
Personal Weather Stations






























Interactive Weather Map New forecast layout! Learn more

10-Day Weather Forecast

Advertisements
Track Severe Weather on mobile